GMTA/AHU METAR and TAF weather

Enter ICAO airport designator
Station Type Date Time Source
GMTA METAR 2020/02/20 23:00 UTC NOAA

GMTA 202300Z 30002KT 9999 SCT030 13/10 Q1025 NOSIG


Station Type Date Time Source
GMTA Decoded METAR 2020/02/20 23:00 UTC NOAA

Al Hoceima, Morocco (GMTA) 35-11N 003-51W 14M
Feb 20, 2020 - 06:00 PM EST / 2020.02.20 2300 UTC
Wind: from the WNW (300 degrees) at 2 MPH (2 KT):0
Visibility: greater than 7 mile(s):0
Sky conditions: partly cloudy
Temperature: 55 F (13 C)
Dew Point: 50 F (10 C)
Relative Humidity: 81%
Pressure (altimeter): 30.27 in. Hg (1025 hPa)
ob: GMTA 202300Z 30002KT 9999 SCT030 13/10 Q1025 NOSIG
cycle: 23

Station Type Date Time Source
GMTA TAF 2020/02/20 18:18 UTC NOAA

TAF GMTA 201700Z 2018/2124 10007KT 9999 FEW023 BKN030

Example: see airport list